sensor_id;sensor_type;location;lat;lon;timestamp;temperature;humidity
23114;DHT22;11726;50.122;8.832;2023-07-20T00:02:12;20.70;99.90
23114;DHT22;11726;50.122;8.832;2023-07-20T00:04:39;20.70;99.90
23114;DHT22;11726;50.122;8.832;2023-07-20T00:07:06;20.70;99.90
23114;DHT22;11726;50.122;8.832;2023-07-20T00:09:33;20.70;99.90
23114;DHT22;11726;50.122;8.832;2023-07-20T00:11:59;20.60;99.90
23114;DHT22;11726;50.122;8.832;2023-07-20T00:14:26;20.60;99.90
23114;DHT22;11726;50.122;8.832;2023-07-20T00:16:55;20.60;99.90
23114;DHT22;11726;50.122;8.832;2023-07-20T00:19:24;20.60;99.90
23114;DHT22;11726;50.122;8.832;2023-07-20T00:21:51;20.50;99.90
23114;DHT22;11726;50.122;8.832;2023-07-20T00:24:17;20.50;99.90
23114;DHT22;11726;50.122;8.832;2023-07-20T00:26:44;20.40;99.90
23114;DHT22;11726;50.122;8.832;2023-07-20T00:29:12;20.50;99.90
23114;DHT22;11726;50.122;8.832;2023-07-20T00:31:38;20.40;99.90
23114;DHT22;11726;50.122;8.832;2023-07-20T00:34:05;20.40;99.90
23114;DHT22;11726;50.122;8.832;2023-07-20T00:36:32;20.40;99.90
23114;DHT22;11726;50.122;8.832;2023-07-20T00:38:59;20.40;99.90
23114;DHT22;11726;50.122;8.832;2023-07-20T00:41:26;20.40;99.90
23114;DHT22;11726;50.122;8.832;2023-07-20T00:43:56;20.40;99.90
23114;DHT22;11726;50.122;8.832;2023-07-20T00:46:23;20.40;99.90
23114;DHT22;11726;50.122;8.832;2023-07-20T00:48:53;20.40;99.90
23114;DHT22;11726;50.122;8.832;2023-07-20T00:51:21;20.40;99.90
23114;DHT22;11726;50.122;8.832;2023-07-20T00:53:49;20.40;99.90
23114;DHT22;11726;50.122;8.832;2023-07-20T00:56:16;20.30;99.90
23114;DHT22;11726;50.122;8.832;2023-07-20T00:58:43;20.30;99.90
23114;DHT22;11726;50.122;8.832;2023-07-20T01:01:10;20.30;99.90
23114;DHT22;11726;50.122;8.832;2023-07-20T01:03:37;20.20;99.90
23114;DHT22;11726;50.122;8.832;2023-07-20T01:06:47;20.20;99.90
23114;DHT22;11726;50.122;8.832;2023-07-20T01:09:18;20.20;99.90
23114;DHT22;11726;50.122;8.832;2023-07-20T01:11:51;20.10;99.90
23114;DHT22;11726;50.122;8.832;2023-07-20T01:14:20;20.10;99.90
23114;DHT22;11726;50.122;8.832;2023-07-20T01:16:47;20.10;99.90
23114;DHT22;11726;50.122;8.832;2023-07-20T01:19:16;20.10;99.90
23114;DHT22;11726;50.122;8.832;2023-07-20T01:25:11;20.10;99.90
23114;DHT22;11726;50.122;8.832;2023-07-20T01:30:50;19.90;99.90
23114;DHT22;11726;50.122;8.832;2023-07-20T01:33:19;19.90;99.90
23114;DHT22;11726;50.122;8.832;2023-07-20T01:35:52;20.00;99.90
23114;DHT22;11726;50.122;8.832;2023-07-20T01:38:20;19.90;99.90
23114;DHT22;11726;50.122;8.832;2023-07-20T01:40:48;19.80;99.90
23114;DHT22;11726;50.122;8.832;2023-07-20T01:43:16;19.80;99.90
23114;DHT22;11726;50.122;8.832;2023-07-20T01:45:43;19.70;99.90
23114;DHT22;11726;50.122;8.832;2023-07-20T01:48:09;19.60;99.90
23114;DHT22;11726;50.122;8.832;2023-07-20T01:50:36;19.60;99.90
23114;DHT22;11726;50.122;8.832;2023-07-20T01:53:03;19.50;99.90
23114;DHT22;11726;50.122;8.832;2023-07-20T01:55:30;19.50;99.90
23114;DHT22;11726;50.122;8.832;2023-07-20T01:57:57;19.40;99.90
23114;DHT22;11726;50.122;8.832;2023-07-20T02:00:26;19.30;99.90
23114;DHT22;11726;50.122;8.832;2023-07-20T02:02:53;19.30;99.90
23114;DHT22;11726;50.122;8.832;2023-07-20T02:05:19;19.30;99.90
23114;DHT22;11726;50.122;8.832;2023-07-20T02:07:46;19.40;99.90
23114;DHT22;11726;50.122;8.832;2023-07-20T02:10:13;19.30;99.90
23114;DHT22;11726;50.122;8.832;2023-07-20T02:12:40;19.20;99.90
23114;DHT22;11726;50.122;8.832;2023-07-20T02:15:07;19.10;99.90
23114;DHT22;11726;50.122;8.832;2023-07-20T02:17:34;19.10;99.90
23114;DHT22;11726;50.122;8.832;2023-07-20T02:20:01;19.00;99.90
23114;DHT22;11726;50.122;8.832;2023-07-20T02:22:28;19.00;99.90
23114;DHT22;11726;50.122;8.832;2023-07-20T02:24:54;18.90;99.90
23114;DHT22;11726;50.122;8.832;2023-07-20T02:27:21;19.00;99.90
23114;DHT22;11726;50.122;8.832;2023-07-20T02:29:48;19.00;99.90
23114;DHT22;11726;50.122;8.832;2023-07-20T02:32:14;18.90;99.90
23114;DHT22;11726;50.122;8.832;2023-07-20T02:34:41;18.90;99.90
23114;DHT22;11726;50.122;8.832;2023-07-20T02:37:08;18.90;99.90
23114;DHT22;11726;50.122;8.832;2023-07-20T02:39:37;18.90;99.90
23114;DHT22;11726;50.122;8.832;2023-07-20T02:42:04;18.80;99.90
23114;DHT22;11726;50.122;8.832;2023-07-20T02:44:31;18.80;99.90
23114;DHT22;11726;50.122;8.832;2023-07-20T02:46:58;18.80;99.90
23114;DHT22;11726;50.122;8.832;2023-07-20T02:49:25;18.80;99.90
23114;DHT22;11726;50.122;8.832;2023-07-20T02:51:52;18.80;99.90
23114;DHT22;11726;50.122;8.832;2023-07-20T02:54:20;18.80;99.90
23114;DHT22;11726;50.122;8.832;2023-07-20T02:56:46;18.80;99.90
23114;DHT22;11726;50.122;8.832;2023-07-20T02:59:13;18.80;99.90
23114;DHT22;11726;50.122;8.832;2023-07-20T03:01:40;18.70;99.90
23114;DHT22;11726;50.122;8.832;2023-07-20T03:04:08;18.60;99.90
23114;DHT22;11726;50.122;8.832;2023-07-20T03:06:37;18.50;99.90
23114;DHT22;11726;50.122;8.832;2023-07-20T03:09:04;18.40;99.90
23114;DHT22;11726;50.122;8.832;2023-07-20T03:11:32;18.40;99.90
23114;DHT22;11726;50.122;8.832;2023-07-20T03:13:59;18.30;99.90
23114;DHT22;11726;50.122;8.832;2023-07-20T03:16:26;18.30;99.90
23114;DHT22;11726;50.122;8.832;2023-07-20T03:18:53;18.30;99.90
23114;DHT22;11726;50.122;8.832;2023-07-20T03:21:20;18.30;99.90
23114;DHT22;11726;50.122;8.832;2023-07-20T03:23:46;18.20;99.90
23114;DHT22;11726;50.122;8.832;2023-07-20T03:26:13;18.20;99.90
23114;DHT22;11726;50.122;8.832;2023-07-20T03:28:40;18.30;99.90
23114;DHT22;11726;50.122;8.832;2023-07-20T03:31:07;18.20;99.90
23114;DHT22;11726;50.122;8.832;2023-07-20T03:33:34;18.20;99.90
23114;DHT22;11726;50.122;8.832;2023-07-20T03:36:01;18.30;99.90
23114;DHT22;11726;50.122;8.832;2023-07-20T03:38:28;18.30;99.90
23114;DHT22;11726;50.122;8.832;2023-07-20T03:40:59;18.20;99.90
23114;DHT22;11726;50.122;8.832;2023-07-20T03:43:27;18.30;99.90
23114;DHT22;11726;50.122;8.832;2023-07-20T03:45:54;18.30;99.90
23114;DHT22;11726;50.122;8.832;2023-07-20T03:48:22;18.20;99.90
23114;DHT22;11726;50.122;8.832;2023-07-20T03:50:50;18.30;99.90
23114;DHT22;11726;50.122;8.832;2023-07-20T03:53:17;18.20;99.90
23114;DHT22;11726;50.122;8.832;2023-07-20T03:55:48;18.20;99.90
23114;DHT22;11726;50.122;8.832;2023-07-20T03:58:15;18.20;99.90
23114;DHT22;11726;50.122;8.832;2023-07-20T04:00:46;18.20;99.90
23114;DHT22;11726;50.122;8.832;2023-07-20T04:03:14;18.20;99.90
23114;DHT22;11726;50.122;8.832;2023-07-20T04:05:41;18.20;99.90
23114;DHT22;11726;50.122;8.832;2023-07-20T04:08:08;18.10;99.90
23114;DHT22;11726;50.122;8.832;2023-07-20T04:10:35;18.20;99.90
23114;DHT22;11726;50.122;8.832;2023-07-20T04:13:01;18.10;99.90
23114;DHT22;11726;50.122;8.832;2023-07-20T04:15:28;18.20;99.90
23114;DHT22;11726;50.122;8.832;2023-07-20T04:17:55;18.20;99.90
23114;DHT22;11726;50.122;8.832;2023-07-20T04:20:23;18.20;99.90
23114;DHT22;11726;50.122;8.832;2023-07-20T04:22:50;18.20;99.90
23114;DHT22;11726;50.122;8.832;2023-07-20T04:25:20;18.20;99.90
23114;DHT22;11726;50.122;8.832;2023-07-20T04:27:47;18.20;99.90
23114;DHT22;11726;50.122;8.832;2023-07-20T04:30:14;18.30;99.90
23114;DHT22;11726;50.122;8.832;2023-07-20T04:32:42;18.30;99.90
23114;DHT22;11726;50.122;8.832;2023-07-20T04:35:10;18.20;99.90
23114;DHT22;11726;50.122;8.832;2023-07-20T04:37:37;18.30;99.90
23114;DHT22;11726;50.122;8.832;2023-07-20T04:40:04;18.40;99.90
23114;DHT22;11726;50.122;8.832;2023-07-20T04:42:31;18.30;99.90
23114;DHT22;11726;50.122;8.832;2023-07-20T04:44:58;18.40;99.90
23114;DHT22;11726;50.122;8.832;2023-07-20T04:47:24;18.40;99.90
23114;DHT22;11726;50.122;8.832;2023-07-20T04:49:51;18.40;99.90
23114;DHT22;11726;50.122;8.832;2023-07-20T04:52:17;18.30;99.90
23114;DHT22;11726;50.122;8.832;2023-07-20T04:54:44;18.40;99.90
23114;DHT22;11726;50.122;8.832;2023-07-20T04:57:12;18.30;99.90
23114;DHT22;11726;50.122;8.832;2023-07-20T04:59:39;18.40;99.90
23114;DHT22;11726;50.122;8.832;2023-07-20T05:02:06;18.40;99.90
23114;DHT22;11726;50.122;8.832;2023-07-20T05:04:32;18.40;99.90
23114;DHT22;11726;50.122;8.832;2023-07-20T05:07:04;18.30;99.90
23114;DHT22;11726;50.122;8.832;2023-07-20T05:09:31;18.30;99.90
23114;DHT22;11726;50.122;8.832;2023-07-20T05:11:58;18.20;99.90
23114;DHT22;11726;50.122;8.832;2023-07-20T05:14:25;18.30;99.90
23114;DHT22;11726;50.122;8.832;2023-07-20T05:16:51;18.40;99.90
23114;DHT22;11726;50.122;8.832;2023-07-20T05:19:18;18.40;99.90
23114;DHT22;11726;50.122;8.832;2023-07-20T05:21:45;18.40;99.90
23114;DHT22;11726;50.122;8.832;2023-07-20T05:24:11;18.40;99.90
23114;DHT22;11726;50.122;8.832;2023-07-20T05:26:38;18.40;99.90
23114;DHT22;11726;50.122;8.832;2023-07-20T05:29:05;18.40;99.90
23114;DHT22;11726;50.122;8.832;2023-07-20T05:31:31;18.40;99.90
23114;DHT22;11726;50.122;8.832;2023-07-20T05:33:58;18.60;99.90
23114;DHT22;11726;50.122;8.832;2023-07-20T05:36:25;18.60;99.90
23114;DHT22;11726;50.122;8.832;2023-07-20T05:38:51;18.60;99.90
23114;DHT22;11726;50.122;8.832;2023-07-20T05:41:18;18.60;99.90
23114;DHT22;11726;50.122;8.832;2023-07-20T05:43:45;18.60;99.90
23114;DHT22;11726;50.122;8.832;2023-07-20T05:46:12;18.70;99.90
23114;DHT22;11726;50.122;8.832;2023-07-20T05:48:38;18.70;99.90
23114;DHT22;11726;50.122;8.832;2023-07-20T05:51:06;18.80;99.90
23114;DHT22;11726;50.122;8.832;2023-07-20T05:53:35;18.90;99.90
23114;DHT22;11726;50.122;8.832;2023-07-20T05:56:02;18.90;99.90
23114;DHT22;11726;50.122;8.832;2023-07-20T05:58:29;18.90;99.90
23114;DHT22;11726;50.122;8.832;2023-07-20T06:00:56;19.00;99.90
23114;DHT22;11726;50.122;8.832;2023-07-20T06:03:23;18.90;99.90
23114;DHT22;11726;50.122;8.832;2023-07-20T06:05:50;18.90;99.90
23114;DHT22;11726;50.122;8.832;2023-07-20T06:08:17;18.90;99.90
23114;DHT22;11726;50.122;8.832;2023-07-20T06:10:44;19.10;99.90
23114;DHT22;11726;50.122;8.832;2023-07-20T06:13:11;19.20;99.90
23114;DHT22;11726;50.122;8.832;2023-07-20T06:15:38;19.30;99.90
23114;DHT22;11726;50.122;8.832;2023-07-20T06:18:05;19.20;99.90
23114;DHT22;11726;50.122;8.832;2023-07-20T06:20:32;19.10;99.90
23114;DHT22;11726;50.122;8.832;2023-07-20T06:22:59;19.20;99.90
23114;DHT22;11726;50.122;8.832;2023-07-20T06:25:26;19.30;99.90
23114;DHT22;11726;50.122;8.832;2023-07-20T06:27:54;19.30;99.90
23114;DHT22;11726;50.122;8.832;2023-07-20T06:30:21;19.40;99.90
23114;DHT22;11726;50.122;8.832;2023-07-20T06:32:48;19.50;99.90
23114;DHT22;11726;50.122;8.832;2023-07-20T06:35:15;19.70;99.90
23114;DHT22;11726;50.122;8.832;2023-07-20T06:37:42;19.80;99.90
23114;DHT22;11726;50.122;8.832;2023-07-20T06:40:09;20.00;99.90
23114;DHT22;11726;50.122;8.832;2023-07-20T06:42:39;19.80;99.90
23114;DHT22;11726;50.122;8.832;2023-07-20T06:45:09;19.60;99.90
23114;DHT22;11726;50.122;8.832;2023-07-20T06:47:38;19.70;99.90
23114;DHT22;11726;50.122;8.832;2023-07-20T06:50:06;19.70;99.90
23114;DHT22;11726;50.122;8.832;2023-07-20T06:52:33;19.80;99.90
23114;DHT22;11726;50.122;8.832;2023-07-20T06:55:00;19.80;99.90
23114;DHT22;11726;50.122;8.832;2023-07-20T06:57:31;19.70;99.90
23114;DHT22;11726;50.122;8.832;2023-07-20T06:59:58;19.80;99.90
23114;DHT22;11726;50.122;8.832;2023-07-20T07:02:25;19.90;99.90
23114;DHT22;11726;50.122;8.832;2023-07-20T07:04:51;19.90;99.90
23114;DHT22;11726;50.122;8.832;2023-07-20T07:07:27;20.00;99.90
23114;DHT22;11726;50.122;8.832;2023-07-20T07:09:53;20.10;99.90
23114;DHT22;11726;50.122;8.832;2023-07-20T07:12:20;20.00;99.90
23114;DHT22;11726;50.122;8.832;2023-07-20T07:14:47;20.00;99.90
23114;DHT22;11726;50.122;8.832;2023-07-20T07:17:14;20.10;99.90
23114;DHT22;11726;50.122;8.832;2023-07-20T07:19:45;20.20;99.90
23114;DHT22;11726;50.122;8.832;2023-07-20T07:22:15;20.30;99.90
23114;DHT22;11726;50.122;8.832;2023-07-20T07:24:42;20.40;99.90
23114;DHT22;11726;50.122;8.832;2023-07-20T07:27:09;20.50;99.90
23114;DHT22;11726;50.122;8.832;2023-07-20T07:29:35;20.70;99.90
23114;DHT22;11726;50.122;8.832;2023-07-20T07:32:02;20.60;99.90
23114;DHT22;11726;50.122;8.832;2023-07-20T07:34:29;20.40;99.90
23114;DHT22;11726;50.122;8.832;2023-07-20T07:36:56;20.20;99.90
23114;DHT22;11726;50.122;8.832;2023-07-20T07:39:23;20.30;99.90
23114;DHT22;11726;50.122;8.832;2023-07-20T07:42:01;20.40;99.90
23114;DHT22;11726;50.122;8.832;2023-07-20T07:44:27;20.60;99.90
23114;DHT22;11726;50.122;8.832;2023-07-20T07:46:54;20.70;99.90
23114;DHT22;11726;50.122;8.832;2023-07-20T07:49:21;20.60;99.90
23114;DHT22;11726;50.122;8.832;2023-07-20T07:51:48;20.50;99.90
23114;DHT22;11726;50.122;8.832;2023-07-20T07:54:15;20.40;99.90
23114;DHT22;11726;50.122;8.832;2023-07-20T07:56:41;20.70;99.90
23114;DHT22;11726;50.122;8.832;2023-07-20T07:59:09;20.70;99.90
23114;DHT22;11726;50.122;8.832;2023-07-20T08:01:35;20.90;99.90
23114;DHT22;11726;50.122;8.832;2023-07-20T08:04:03;21.10;99.90
23114;DHT22;11726;50.122;8.832;2023-07-20T08:06:30;21.10;99.90
23114;DHT22;11726;50.122;8.832;2023-07-20T08:08:58;21.00;99.90
23114;DHT22;11726;50.122;8.832;2023-07-20T08:11:24;20.80;99.90
23114;DHT22;11726;50.122;8.832;2023-07-20T08:13:51;20.80;99.90
23114;DHT22;11726;50.122;8.832;2023-07-20T08:16:18;20.70;99.90
23114;DHT22;11726;50.122;8.832;2023-07-20T08:18:44;20.90;99.90
23114;DHT22;11726;50.122;8.832;2023-07-20T08:21:12;21.20;99.90
23114;DHT22;11726;50.122;8.832;2023-07-20T08:23:39;21.50;99.90
23114;DHT22;11726;50.122;8.832;2023-07-20T08:26:05;21.60;99.90
23114;DHT22;11726;50.122;8.832;2023-07-20T08:28:32;21.30;99.90
23114;DHT22;11726;50.122;8.832;2023-07-20T08:30:59;21.40;99.90
23114;DHT22;11726;50.122;8.832;2023-07-20T08:33:26;21.30;99.90
23114;DHT22;11726;50.122;8.832;2023-07-20T08:35:56;21.20;99.90
23114;DHT22;11726;50.122;8.832;2023-07-20T08:38:24;21.50;99.90
23114;DHT22;11726;50.122;8.832;2023-07-20T08:40:51;21.50;99.90
23114;DHT22;11726;50.122;8.832;2023-07-20T08:43:22;21.80;99.90
23114;DHT22;11726;50.122;8.832;2023-07-20T08:45:52;22.10;99.90
23114;DHT22;11726;50.122;8.832;2023-07-20T08:48:20;21.90;99.90
23114;DHT22;11726;50.122;8.832;2023-07-20T08:50:49;21.90;99.90
23114;DHT22;11726;50.122;8.832;2023-07-20T08:53:18;21.80;99.90
23114;DHT22;11726;50.122;8.832;2023-07-20T08:55:45;21.80;99.90
23114;DHT22;11726;50.122;8.832;2023-07-20T08:58:15;21.80;99.90
23114;DHT22;11726;50.122;8.832;2023-07-20T09:00:44;21.60;99.90
23114;DHT22;11726;50.122;8.832;2023-07-20T09:03:14;21.70;99.90
23114;DHT22;11726;50.122;8.832;2023-07-20T09:05:41;21.60;99.90
23114;DHT22;11726;50.122;8.832;2023-07-20T09:08:08;21.70;99.90
23114;DHT22;11726;50.122;8.832;2023-07-20T09:10:35;21.90;99.90
23114;DHT22;11726;50.122;8.832;2023-07-20T09:13:01;22.10;99.90
23114;DHT22;11726;50.122;8.832;2023-07-20T09:15:29;22.00;99.90
23114;DHT22;11726;50.122;8.832;2023-07-20T09:18:00;21.80;99.90
23114;DHT22;11726;50.122;8.832;2023-07-20T09:20:27;21.70;99.90
23114;DHT22;11726;50.122;8.832;2023-07-20T09:22:57;21.80;99.90
23114;DHT22;11726;50.122;8.832;2023-07-20T09:25:23;22.00;99.90
23114;DHT22;11726;50.122;8.832;2023-07-20T09:27:55;22.10;99.90
23114;DHT22;11726;50.122;8.832;2023-07-20T09:30:25;22.30;99.90
23114;DHT22;11726;50.122;8.832;2023-07-20T09:32:58;21.80;99.90
23114;DHT22;11726;50.122;8.832;2023-07-20T09:35:26;21.90;99.90
23114;DHT22;11726;50.122;8.832;2023-07-20T09:38:07;22.30;99.90
23114;DHT22;11726;50.122;8.832;2023-07-20T09:40:38;22.60;99.80
23114;DHT22;11726;50.122;8.832;2023-07-20T09:43:09;22.60;99.20
23114;DHT22;11726;50.122;8.832;2023-07-20T09:45:42;22.50;98.90
23114;DHT22;11726;50.122;8.832;2023-07-20T09:48:12;22.70;98.70
23114;DHT22;11726;50.122;8.832;2023-07-20T09:50:51;22.30;98.40
23114;DHT22;11726;50.122;8.832;2023-07-20T09:53:19;22.20;99.20
23114;DHT22;11726;50.122;8.832;2023-07-20T09:55:47;22.30;99.80
23114;DHT22;11726;50.122;8.832;2023-07-20T09:58:15;22.50;99.40
23114;DHT22;11726;50.122;8.832;2023-07-20T10:00:42;22.50;98.20
23114;DHT22;11726;50.122;8.832;2023-07-20T10:03:20;22.50;97.30
23114;DHT22;11726;50.122;8.832;2023-07-20T10:06:08;22.40;97.70
23114;DHT22;11726;50.122;8.832;2023-07-20T10:08:39;22.30;98.10
23114;DHT22;11726;50.122;8.832;2023-07-20T10:11:10;22.40;97.60
23114;DHT22;11726;50.122;8.832;2023-07-20T10:13:41;22.50;98.00
23114;DHT22;11726;50.122;8.832;2023-07-20T10:16:15;22.50;98.20
23114;DHT22;11726;50.122;8.832;2023-07-20T10:18:51;22.50;98.30
23114;DHT22;11726;50.122;8.832;2023-07-20T10:21:21;22.50;97.50
23114;DHT22;11726;50.122;8.832;2023-07-20T10:23:53;22.40;98.60
23114;DHT22;11726;50.122;8.832;2023-07-20T10:26:20;22.80;98.10
23114;DHT22;11726;50.122;8.832;2023-07-20T10:28:49;23.00;96.90
23114;DHT22;11726;50.122;8.832;2023-07-20T10:31:17;23.40;95.50
23114;DHT22;11726;50.122;8.832;2023-07-20T10:33:44;23.50;94.70
23114;DHT22;11726;50.122;8.832;2023-07-20T10:36:11;23.50;94.60
23114;DHT22;11726;50.122;8.832;2023-07-20T10:38:52;23.60;94.20
23114;DHT22;11726;50.122;8.832;2023-07-20T10:41:33;23.50;95.00
23114;DHT22;11726;50.122;8.832;2023-07-20T10:44:20;23.60;93.90
23114;DHT22;11726;50.122;8.832;2023-07-20T10:46:46;24.00;93.70
23114;DHT22;11726;50.122;8.832;2023-07-20T10:49:14;24.00;93.20
23114;DHT22;11726;50.122;8.832;2023-07-20T10:51:49;23.90;92.90
23114;DHT22;11726;50.122;8.832;2023-07-20T10:56:49;23.70;93.60
23114;DHT22;11726;50.122;8.832;2023-07-20T11:01:55;24.00;92.20
23114;DHT22;11726;50.122;8.832;2023-07-20T11:04:44;23.90;92.90
23114;DHT22;11726;50.122;8.832;2023-07-20T11:07:35;24.20;92.70
23114;DHT22;11726;50.122;8.832;2023-07-20T11:10:16;24.50;92.50
23114;DHT22;11726;50.122;8.832;2023-07-20T11:13:18;24.40;91.60
23114;DHT22;11726;50.122;8.832;2023-07-20T11:15:46;23.70;91.80
23114;DHT22;11726;50.122;8.832;2023-07-20T11:18:14;23.70;92.10
23114;DHT22;11726;50.122;8.832;2023-07-20T11:20:41;24.30;92.00
23114;DHT22;11726;50.122;8.832;2023-07-20T11:23:08;24.20;91.40
23114;DHT22;11726;50.122;8.832;2023-07-20T11:25:39;24.30;91.00
23114;DHT22;11726;50.122;8.832;2023-07-20T11:28:07;23.90;91.60
23114;DHT22;11726;50.122;8.832;2023-07-20T11:30:36;24.70;90.70
23114;DHT22;11726;50.122;8.832;2023-07-20T11:33:03;24.90;89.40
23114;DHT22;11726;50.122;8.832;2023-07-20T11:35:31;25.00;87.90
23114;DHT22;11726;50.122;8.832;2023-07-20T11:38:01;24.50;88.30
23114;DHT22;11726;50.122;8.832;2023-07-20T11:40:28;25.00;88.90
23114;DHT22;11726;50.122;8.832;2023-07-20T11:42:54;25.00;85.70
23114;DHT22;11726;50.122;8.832;2023-07-20T11:45:25;24.60;85.80
23114;DHT22;11726;50.122;8.832;2023-07-20T11:47:53;24.50;87.70
23114;DHT22;11726;50.122;8.832;2023-07-20T11:50:20;25.00;86.00
23114;DHT22;11726;50.122;8.832;2023-07-20T11:52:47;25.20;86.00
23114;DHT22;11726;50.122;8.832;2023-07-20T11:55:14;25.20;85.20
23114;DHT22;11726;50.122;8.832;2023-07-20T11:57:41;25.90;84.20
23114;DHT22;11726;50.122;8.832;2023-07-20T12:00:09;25.30;80.60
23114;DHT22;11726;50.122;8.832;2023-07-20T12:02:38;24.70;83.10
23114;DHT22;11726;50.122;8.832;2023-07-20T12:05:08;25.30;83.10
23114;DHT22;11726;50.122;8.832;2023-07-20T12:07:36;25.70;81.90
23114;DHT22;11726;50.122;8.832;2023-07-20T12:12:33;25.30;80.50
23114;DHT22;11726;50.122;8.832;2023-07-20T12:15:32;25.40;82.40
23114;DHT22;11726;50.122;8.832;2023-07-20T12:18:00;25.70;81.60
23114;DHT22;11726;50.122;8.832;2023-07-20T12:20:35;26.00;81.60
23114;DHT22;11726;50.122;8.832;2023-07-20T12:23:12;26.30;80.40
23114;DHT22;11726;50.122;8.832;2023-07-20T12:25:39;26.30;78.80
23114;DHT22;11726;50.122;8.832;2023-07-20T12:28:14;26.60;77.00
23114;DHT22;11726;50.122;8.832;2023-07-20T12:30:43;26.60;78.30
23114;DHT22;11726;50.122;8.832;2023-07-20T12:33:11;26.10;78.30
23114;DHT22;11726;50.122;8.832;2023-07-20T12:35:38;26.70;78.50
23114;DHT22;11726;50.122;8.832;2023-07-20T12:38:05;26.20;77.20
23114;DHT22;11726;50.122;8.832;2023-07-20T12:40:34;26.50;77.50
23114;DHT22;11726;50.122;8.832;2023-07-20T12:43:00;26.80;77.00
23114;DHT22;11726;50.122;8.832;2023-07-20T12:45:27;26.70;76.70
23114;DHT22;11726;50.122;8.832;2023-07-20T12:47:54;26.30;75.00
23114;DHT22;11726;50.122;8.832;2023-07-20T12:50:21;25.90;78.10
23114;DHT22;11726;50.122;8.832;2023-07-20T12:52:47;25.70;78.20
23114;DHT22;11726;50.122;8.832;2023-07-20T12:55:14;25.60;78.20
23114;DHT22;11726;50.122;8.832;2023-07-20T12:57:41;25.30;77.20
23114;DHT22;11726;50.122;8.832;2023-07-20T13:00:10;25.40;77.60
23114;DHT22;11726;50.122;8.832;2023-07-20T13:02:38;25.50;76.40
23114;DHT22;11726;50.122;8.832;2023-07-20T13:05:05;25.40;76.50
23114;DHT22;11726;50.122;8.832;2023-07-20T13:07:33;25.70;76.80
23114;DHT22;11726;50.122;8.832;2023-07-20T13:10:04;25.90;75.50
23114;DHT22;11726;50.122;8.832;2023-07-20T13:12:33;25.90;75.70
23114;DHT22;11726;50.122;8.832;2023-07-20T13:15:02;26.80;77.00
23114;DHT22;11726;50.122;8.832;2023-07-20T13:17:36;26.90;72.50
23114;DHT22;11726;50.122;8.832;2023-07-20T13:20:04;27.20;71.30
23114;DHT22;11726;50.122;8.832;2023-07-20T13:22:33;27.10;71.80
23114;DHT22;11726;50.122;8.832;2023-07-20T13:25:00;26.90;71.50
23114;DHT22;11726;50.122;8.832;2023-07-20T13:27:27;26.60;70.40
23114;DHT22;11726;50.122;8.832;2023-07-20T13:29:54;26.20;71.40
23114;DHT22;11726;50.122;8.832;2023-07-20T13:32:21;26.00;70.70
23114;DHT22;11726;50.122;8.832;2023-07-20T13:34:50;25.80;71.40
23114;DHT22;11726;50.122;8.832;2023-07-20T13:37:17;25.80;71.10
23114;DHT22;11726;50.122;8.832;2023-07-20T13:39:43;26.20;71.50
23114;DHT22;11726;50.122;8.832;2023-07-20T13:42:11;27.10;68.30
23114;DHT22;11726;50.122;8.832;2023-07-20T13:44:39;27.70;66.50
23114;DHT22;11726;50.122;8.832;2023-07-20T13:47:05;28.20;65.70
23114;DHT22;11726;50.122;8.832;2023-07-20T13:49:35;28.70;62.50
23114;DHT22;11726;50.122;8.832;2023-07-20T13:52:13;28.20;61.00
23114;DHT22;11726;50.122;8.832;2023-07-20T13:54:43;28.70;61.90
23114;DHT22;11726;50.122;8.832;2023-07-20T13:57:15;29.30;59.80
23114;DHT22;11726;50.122;8.832;2023-07-20T13:59:43;29.30;60.50
23114;DHT22;11726;50.122;8.832;2023-07-20T14:02:10;29.00;60.40
23114;DHT22;11726;50.122;8.832;2023-07-20T14:04:39;28.50;60.90
23114;DHT22;11726;50.122;8.832;2023-07-20T14:07:07;28.20;61.00
23114;DHT22;11726;50.122;8.832;2023-07-20T14:09:35;28.20;63.50
23114;DHT22;11726;50.122;8.832;2023-07-20T14:12:01;28.10;60.50
23114;DHT22;11726;50.122;8.832;2023-07-20T14:14:31;27.70;61.10
23114;DHT22;11726;50.122;8.832;2023-07-20T14:16:57;27.80;59.70
23114;DHT22;11726;50.122;8.832;2023-07-20T14:19:24;27.50;59.10
23114;DHT22;11726;50.122;8.832;2023-07-20T14:21:51;27.40;60.30
23114;DHT22;11726;50.122;8.832;2023-07-20T14:24:17;27.30;59.20
23114;DHT22;11726;50.122;8.832;2023-07-20T14:26:45;27.20;58.50
23114;DHT22;11726;50.122;8.832;2023-07-20T14:29:14;27.30;58.40
23114;DHT22;11726;50.122;8.832;2023-07-20T14:31:40;28.20;58.20
23114;DHT22;11726;50.122;8.832;2023-07-20T14:34:08;29.00;55.60
23114;DHT22;11726;50.122;8.832;2023-07-20T14:36:35;29.10;54.30
23114;DHT22;11726;50.122;8.832;2023-07-20T14:39:02;28.00;53.60
23114;DHT22;11726;50.122;8.832;2023-07-20T14:41:28;27.60;54.10
23114;DHT22;11726;50.122;8.832;2023-07-20T14:43:55;27.30;54.30
23114;DHT22;11726;50.122;8.832;2023-07-20T14:46:24;27.00;54.00
23114;DHT22;11726;50.122;8.832;2023-07-20T14:48:51;26.90;55.40
23114;DHT22;11726;50.122;8.832;2023-07-20T14:51:18;26.70;56.10
23114;DHT22;11726;50.122;8.832;2023-07-20T14:53:46;26.40;56.80
23114;DHT22;11726;50.122;8.832;2023-07-20T14:56:13;26.30;57.70
23114;DHT22;11726;50.122;8.832;2023-07-20T14:58:39;26.20;56.90
23114;DHT22;11726;50.122;8.832;2023-07-20T15:01:06;26.10;57.50
23114;DHT22;11726;50.122;8.832;2023-07-20T15:03:33;26.00;57.60
23114;DHT22;11726;50.122;8.832;2023-07-20T15:06:01;26.10;58.00
23114;DHT22;11726;50.122;8.832;2023-07-20T15:08:27;26.00;58.30
23114;DHT22;11726;50.122;8.832;2023-07-20T15:10:54;25.90;58.40
23114;DHT22;11726;50.122;8.832;2023-07-20T15:13:21;25.60;58.70
23114;DHT22;11726;50.122;8.832;2023-07-20T15:15:49;25.90;59.30
23114;DHT22;11726;50.122;8.832;2023-07-20T15:18:16;25.90;59.60
23114;DHT22;11726;50.122;8.832;2023-07-20T15:20:42;26.10;59.40
23114;DHT22;11726;50.122;8.832;2023-07-20T15:23:09;26.40;60.20
23114;DHT22;11726;50.122;8.832;2023-07-20T15:25:36;26.10;58.80
23114;DHT22;11726;50.122;8.832;2023-07-20T15:28:03;26.10;58.80
23114;DHT22;11726;50.122;8.832;2023-07-20T15:30:30;26.00;58.90
23114;DHT22;11726;50.122;8.832;2023-07-20T15:32:59;25.90;59.90
23114;DHT22;11726;50.122;8.832;2023-07-20T15:35:29;25.90;59.40
23114;DHT22;11726;50.122;8.832;2023-07-20T15:37:56;25.70;59.10
23114;DHT22;11726;50.122;8.832;2023-07-20T15:40:22;25.70;59.30
23114;DHT22;11726;50.122;8.832;2023-07-20T15:42:49;25.60;59.10
23114;DHT22;11726;50.122;8.832;2023-07-20T15:45:19;25.70;59.70
23114;DHT22;11726;50.122;8.832;2023-07-20T15:47:47;25.70;59.10
23114;DHT22;11726;50.122;8.832;2023-07-20T15:50:13;25.60;59.30
23114;DHT22;11726;50.122;8.832;2023-07-20T15:52:40;25.60;59.60